createdAt,value
2019-03-27T00:00:20.540Z,9.57
2019-03-27T00:02:51.143Z,11.37
2019-03-27T00:05:21.959Z,17.63
2019-03-27T00:07:52.211Z,12.63
2019-03-27T00:10:22.488Z,13.87
2019-03-27T00:12:52.804Z,10.30
2019-03-27T00:15:23.060Z,10.23
2019-03-27T00:17:53.309Z,12.67
2019-03-27T00:20:23.590Z,11.83
2019-03-27T00:22:53.865Z,9.63
2019-03-27T00:25:24.127Z,8.17
2019-03-27T00:27:54.377Z,6.97
2019-03-27T00:30:24.625Z,12.47
2019-03-27T00:32:54.876Z,7.53
2019-03-27T00:35:25.147Z,8.97
2019-03-27T00:37:55.394Z,7.10
2019-03-27T00:40:25.667Z,10.23
2019-03-27T00:42:55.986Z,14.53
2019-03-27T00:45:27.201Z,10.57
2019-03-27T00:47:57.666Z,10.63
2019-03-27T00:50:27.907Z,11.33
2019-03-27T00:52:58.186Z,13.40
2019-03-27T00:55:28.538Z,14.70
2019-03-27T00:57:58.770Z,10.83
2019-03-27T01:00:44.626Z,14.80
2019-03-27T01:03:14.902Z,14.23
2019-03-27T01:05:45.146Z,16.03
2019-03-27T01:08:15.433Z,15.40
2019-03-27T01:10:45.678Z,17.37
2019-03-27T01:13:15.965Z,15.67
2019-03-27T01:15:46.583Z,15.77
2019-03-27T01:18:16.840Z,14.03
2019-03-27T01:20:47.131Z,10.53
2019-03-27T01:23:17.409Z,13.23
2019-03-27T01:25:47.660Z,8.43
2019-03-27T01:28:18.206Z,12.00
2019-03-27T01:30:48.488Z,10.07
2019-03-27T01:33:19.081Z,13.77
2019-03-27T01:35:49.328Z,17.23
2019-03-27T01:38:19.608Z,17.93
2019-03-27T01:40:49.878Z,14.90
2019-03-27T01:43:20.156Z,16.00
2019-03-27T01:45:53.316Z,11.33
2019-03-27T01:48:23.996Z,17.67
2019-03-27T01:50:54.253Z,12.70
2019-03-27T01:53:24.507Z,13.30
2019-03-27T01:55:54.755Z,12.97
2019-03-27T01:58:25.038Z,15.97
2019-03-27T02:00:55.315Z,16.67
2019-03-27T02:03:25.559Z,15.87
2019-03-27T02:05:55.838Z,15.23
2019-03-27T02:08:26.082Z,13.90
2019-03-27T02:10:56.366Z,11.53
2019-03-27T02:13:29.323Z,18.23
2019-03-27T02:16:06.632Z,15.63
2019-03-27T02:18:31.700Z,10.63
2019-03-27T02:21:02.228Z,9.17
2019-03-27T02:23:32.464Z,10.00
2019-03-27T02:26:04.400Z,14.57
2019-03-27T02:28:34.636Z,12.10
2019-03-27T02:31:04.970Z,10.30
2019-03-27T02:33:35.243Z,7.37
2019-03-27T02:36:05.651Z,8.23
2019-03-27T02:38:35.898Z,11.27
2019-03-27T02:41:06.176Z,8.70
2019-03-27T02:43:36.450Z,6.50
2019-03-27T02:46:23.258Z,6.47
2019-03-27T02:48:38.820Z,14.20
2019-03-27T02:51:09.082Z,9.43
2019-03-27T02:53:39.332Z,6.20
2019-03-27T02:56:09.616Z,7.33
2019-03-27T02:58:39.894Z,7.00
2019-03-27T03:01:10.163Z,5.93
2019-03-27T03:03:40.393Z,8.30
2019-03-27T03:06:10.647Z,10.80
2019-03-27T03:08:40.938Z,12.67
2019-03-27T03:11:11.209Z,9.03
2019-03-27T03:13:41.453Z,10.37
2019-03-27T03:16:11.712Z,14.40
2019-03-27T03:18:41.989Z,8.57
2019-03-27T03:21:14.951Z,12.20
2019-03-27T03:23:45.228Z,12.37
2019-03-27T03:26:15.475Z,11.93
2019-03-27T03:28:45.729Z,12.40
2019-03-27T03:31:16.199Z,9.97
2019-03-27T03:33:46.531Z,11.57
2019-03-27T03:36:16.775Z,12.90
2019-03-27T03:38:47.029Z,13.87
2019-03-27T03:41:17.303Z,14.07
2019-03-27T03:43:47.809Z,18.47
2019-03-27T03:46:18.141Z,23.33
2019-03-27T03:48:48.496Z,21.53
2019-03-27T03:51:18.726Z,16.43
2019-03-27T03:53:48.984Z,18.97
2019-03-27T03:56:19.248Z,12.50
2019-03-27T03:58:49.492Z,20.53
2019-03-27T04:01:20.146Z,16.83
2019-03-27T04:03:50.399Z,19.37
2019-03-27T04:06:20.652Z,20.17
2019-03-27T04:08:50.906Z,19.70
2019-03-27T04:11:21.168Z,17.63
2019-03-27T04:13:51.446Z,19.17
2019-03-27T04:16:21.728Z,20.07
2019-03-27T04:18:52.002Z,21.67
2019-03-27T04:21:22.240Z,26.07
2019-03-27T04:23:52.495Z,26.90
2019-03-27T04:26:23.042Z,20.23
2019-03-27T04:28:53.315Z,21.27
2019-03-27T04:31:23.573Z,22.40
2019-03-27T04:33:53.853Z,18.83
2019-03-27T04:36:24.129Z,18.83
2019-03-27T04:38:55.145Z,21.10
2019-03-27T04:41:25.398Z,17.53
2019-03-27T04:43:55.695Z,25.07
2019-03-27T04:46:25.979Z,24.30
2019-03-27T04:48:56.538Z,28.40
2019-03-27T04:51:26.830Z,23.90
2019-03-27T04:53:57.083Z,24.50
2019-03-27T04:56:27.367Z,18.80
2019-03-27T04:58:59.370Z,23.03
2019-03-27T05:01:30.582Z,23.03
2019-03-27T05:04:01.512Z,25.90
2019-03-27T05:06:32.054Z,23.57
2019-03-27T05:09:02.302Z,25.60
2019-03-27T05:11:32.559Z,23.57
2019-03-27T05:14:02.850Z,24.30
2019-03-27T05:16:33.399Z,24.63
2019-03-27T05:19:03.939Z,25.90
2019-03-27T05:21:34.191Z,26.73
2019-03-27T05:24:04.435Z,29.93
2019-03-27T05:26:36.342Z,24.73
2019-03-27T05:29:08.558Z,25.90
2019-03-27T05:31:38.834Z,26.67
2019-03-27T05:34:09.115Z,28.83
2019-03-27T05:36:39.860Z,28.50
2019-03-27T05:39:10.111Z,33.73
2019-03-27T05:41:40.397Z,27.77
2019-03-27T05:44:10.643Z,28.63
2019-03-27T05:46:40.900Z,24.77
2019-03-27T05:49:11.238Z,25.80
2019-03-27T05:51:41.527Z,28.03
2019-03-27T05:54:11.773Z,26.67
2019-03-27T05:56:42.093Z,22.97
2019-03-27T05:59:12.349Z,26.03
2019-03-27T06:01:42.671Z,23.03
2019-03-27T06:04:12.927Z,24.20
2019-03-27T06:06:43.211Z,29.03
2019-03-27T06:09:13.498Z,22.80
2019-03-27T06:11:43.750Z,21.47
2019-03-27T06:14:14.114Z,20.73
2019-03-27T06:16:44.365Z,20.90
2019-03-27T06:19:14.639Z,20.80
2019-03-27T06:21:45.259Z,19.83
2019-03-27T06:24:15.547Z,23.20
2019-03-27T06:26:45.799Z,20.30
2019-03-27T06:29:16.136Z,18.03
2019-03-27T06:31:46.410Z,19.30
2019-03-27T06:34:16.658Z,20.63
2019-03-27T06:36:47.017Z,21.03
2019-03-27T06:39:17.267Z,22.60
2019-03-27T06:41:47.528Z,14.53
2019-03-27T06:44:17.805Z,17.10
2019-03-27T06:46:48.079Z,18.10
2019-03-27T06:49:18.336Z,21.53
2019-03-27T06:51:48.617Z,17.37
2019-03-27T06:54:18.863Z,17.33
2019-03-27T06:56:49.125Z,13.63
2019-03-27T06:59:19.405Z,18.40
2019-03-27T07:01:49.650Z,15.50
2019-03-27T07:04:19.934Z,16.97
2019-03-27T07:06:50.205Z,14.80
2019-03-27T07:09:20.553Z,18.20
2019-03-27T07:11:50.801Z,15.50
2019-03-27T07:14:21.053Z,18.57
2019-03-27T07:16:51.352Z,14.23
2019-03-27T07:19:21.593Z,19.30
2019-03-27T07:21:51.845Z,12.87
2019-03-27T07:24:22.128Z,17.07
2019-03-27T07:26:52.631Z,14.93
2019-03-27T07:29:22.880Z,14.07
2019-03-27T07:31:53.172Z,17.03
2019-03-27T07:34:23.449Z,21.43
2019-03-27T07:36:56.110Z,12.77
2019-03-27T07:39:25.625Z,11.67
2019-03-27T07:41:56.269Z,15.17
2019-03-27T07:44:26.517Z,15.83
2019-03-27T07:46:56.754Z,13.17
2019-03-27T07:49:26.996Z,12.43
2019-03-27T07:51:57.278Z,11.73
2019-03-27T07:54:28.091Z,12.23
2019-03-27T07:56:58.364Z,13.10
2019-03-27T07:59:28.888Z,16.87
2019-03-27T08:01:59.832Z,11.97
2019-03-27T08:04:30.083Z,15.47
2019-03-27T08:07:00.318Z,13.60
2019-03-27T08:09:30.594Z,10.63
2019-03-27T08:12:01.204Z,16.37
2019-03-27T08:14:31.446Z,12.20
2019-03-27T08:17:01.766Z,11.67
2019-03-27T08:19:32.046Z,11.30
2019-03-27T08:22:02.290Z,14.17
2019-03-27T08:24:32.566Z,14.97
2019-03-27T08:27:02.832Z,15.27
2019-03-27T08:29:33.069Z,13.33
2019-03-27T08:32:03.342Z,9.40
2019-03-27T08:34:33.877Z,9.20
2019-03-27T08:37:04.152Z,16.43
2019-03-27T08:39:34.408Z,9.97
2019-03-27T08:42:04.677Z,9.83
2019-03-27T08:44:34.916Z,15.63
2019-03-27T08:47:05.190Z,15.17
2019-03-27T08:49:35.460Z,14.27
2019-03-27T08:52:05.711Z,10.80
2019-03-27T08:54:35.953Z,12.60
2019-03-27T08:57:06.205Z,14.37
2019-03-27T08:59:36.456Z,17.37
2019-03-27T09:02:06.735Z,14.83
2019-03-27T09:04:37.015Z,14.50
2019-03-27T09:07:07.313Z,18.80
2019-03-27T09:09:37.569Z,12.47
2019-03-27T09:12:07.845Z,13.50
2019-03-27T09:14:38.085Z,11.37
2019-03-27T09:17:08.355Z,12.17
2019-03-27T09:19:38.632Z,11.27
2019-03-27T09:22:08.856Z,14.20
2019-03-27T09:24:39.105Z,13.53
2019-03-27T09:27:09.420Z,12.27
2019-03-27T09:29:39.674Z,12.97
2019-03-27T09:32:09.923Z,13.67
2019-03-27T09:34:40.167Z,17.17
2019-03-27T09:37:10.412Z,14.07
2019-03-27T09:39:40.761Z,15.63
2019-03-27T09:42:11.062Z,15.03
2019-03-27T09:44:41.326Z,14.37
2019-03-27T09:47:11.595Z,13.30
2019-03-27T09:49:49.627Z,12.33
2019-03-27T09:52:13.789Z,12.77
2019-03-27T09:54:44.037Z,17.03
2019-03-27T09:57:14.288Z,13.40
2019-03-27T09:59:44.524Z,16.90
2019-03-27T10:02:14.806Z,13.97
2019-03-27T10:04:45.047Z,17.20
2019-03-27T10:07:15.296Z,12.67
2019-03-27T10:09:45.569Z,17.80
2019-03-27T10:12:15.809Z,16.37
2019-03-27T10:14:47.737Z,10.87
2019-03-27T10:17:18.029Z,16.40
2019-03-27T10:19:48.264Z,11.60
2019-03-27T10:22:18.542Z,17.20
2019-03-27T10:24:48.811Z,18.23
2019-03-27T10:27:19.082Z,12.20
2019-03-27T10:29:49.356Z,17.20
2019-03-27T10:32:19.599Z,15.50
2019-03-27T10:34:49.890Z,12.50
2019-03-27T10:37:20.168Z,12.63
2019-03-27T10:39:50.438Z,13.47
2019-03-27T10:42:20.755Z,13.43
2019-03-27T10:44:51.006Z,9.13
2019-03-27T10:47:21.333Z,11.33
2019-03-27T10:49:51.616Z,10.83
2019-03-27T10:52:21.897Z,10.00
2019-03-27T10:54:52.177Z,12.07
2019-03-27T10:57:22.427Z,10.83
2019-03-27T10:59:52.707Z,9.87
2019-03-27T11:02:23.025Z,14.90
2019-03-27T11:04:53.278Z,11.03
2019-03-27T11:07:23.543Z,12.50
2019-03-27T11:09:53.988Z,9.43
2019-03-27T11:12:24.230Z,9.33
2019-03-27T11:14:54.964Z,10.37
2019-03-27T11:17:25.232Z,12.07
2019-03-27T11:19:55.488Z,10.40
2019-03-27T11:22:25.784Z,11.10
2019-03-27T11:24:56.063Z,10.13
2019-03-27T11:27:26.340Z,8.40
2019-03-27T11:29:56.622Z,10.67
2019-03-27T11:32:26.866Z,9.87
2019-03-27T11:34:57.151Z,8.70
2019-03-27T11:37:27.398Z,14.90
2019-03-27T11:39:57.750Z,7.13
2019-03-27T11:42:28.029Z,12.97
2019-03-27T11:44:58.278Z,9.57
2019-03-27T11:47:28.562Z,10.10
2019-03-27T11:49:58.813Z,9.77
2019-03-27T11:52:29.833Z,10.83
2019-03-27T11:55:00.476Z,12.73
2019-03-27T11:57:30.738Z,11.93
2019-03-27T12:00:01.392Z,9.73
2019-03-27T12:02:32.003Z,12.77
2019-03-27T12:05:02.282Z,12.83
2019-03-27T12:07:32.526Z,11.03
2019-03-27T12:10:04.924Z,9.83
2019-03-27T12:12:35.270Z,9.97
2019-03-27T12:15:06.991Z,10.13
2019-03-27T12:17:37.235Z,14.07
2019-03-27T12:20:08.091Z,15.43
2019-03-27T12:22:38.372Z,13.83
2019-03-27T12:25:08.663Z,11.23
2019-03-27T12:27:38.937Z,11.43
2019-03-27T12:30:09.215Z,11.67
2019-03-27T12:32:39.467Z,12.50
2019-03-27T12:35:09.727Z,8.53
2019-03-27T12:37:39.985Z,12.63
2019-03-27T12:40:11.789Z,14.93
2019-03-27T12:42:42.449Z,12.07
2019-03-27T12:45:12.738Z,9.50
2019-03-27T12:47:43.009Z,8.07
2019-03-27T12:50:14.175Z,12.57
2019-03-27T12:52:44.454Z,13.17
2019-03-27T12:55:14.735Z,9.13
2019-03-27T12:57:45.025Z,11.03
2019-03-27T13:00:15.276Z,10.17
2019-03-27T13:02:45.540Z,11.87
2019-03-27T13:05:15.797Z,10.73
2019-03-27T13:07:50.198Z,11.30
2019-03-27T13:10:18.062Z,8.07
2019-03-27T13:12:48.349Z,7.37
2019-03-27T13:15:18.597Z,10.70
2019-03-27T13:17:48.882Z,10.40
2019-03-27T13:20:20.798Z,10.63
2019-03-27T13:22:51.077Z,9.37
2019-03-27T13:25:21.360Z,12.43
2019-03-27T13:27:51.634Z,6.37
2019-03-27T13:30:21.883Z,8.60
2019-03-27T13:32:52.236Z,6.70
2019-03-27T13:35:22.515Z,8.60
2019-03-27T13:37:52.852Z,7.90
2019-03-27T13:40:23.178Z,8.37
2019-03-27T13:42:53.594Z,6.73
2019-03-27T13:45:23.885Z,5.63
2019-03-27T13:47:54.160Z,3.73
2019-03-27T13:50:25.251Z,5.27
2019-03-27T13:52:55.503Z,3.87
2019-03-27T13:55:25.769Z,4.13
2019-03-27T13:57:56.032Z,5.97
2019-03-27T14:00:26.272Z,6.80
2019-03-27T14:02:56.607Z,5.77
2019-03-27T14:05:26.842Z,4.53
2019-03-27T14:07:57.520Z,6.53
2019-03-27T14:10:27.833Z,5.40
2019-03-27T14:12:58.395Z,5.93
2019-03-27T14:15:28.669Z,6.53
2019-03-27T14:17:58.945Z,7.53
2019-03-27T14:20:29.446Z,5.47
2019-03-27T14:22:59.704Z,4.80
2019-03-27T14:25:29.987Z,5.60
2019-03-27T14:28:00.335Z,6.17
2019-03-27T14:30:50.054Z,5.97
2019-03-27T14:33:20.897Z,8.67
2019-03-27T14:35:51.223Z,6.90
2019-03-27T14:38:21.501Z,5.97
2019-03-27T14:40:51.748Z,8.80
2019-03-27T14:43:22.025Z,9.13
2019-03-27T14:45:52.321Z,6.40
2019-03-27T14:48:22.923Z,7.80
2019-03-27T14:50:53.422Z,9.13
2019-03-27T14:53:23.698Z,8.60
2019-03-27T14:55:53.974Z,5.87
2019-03-27T14:58:24.251Z,8.40
2019-03-27T15:00:54.531Z,8.13
2019-03-27T15:03:24.788Z,7.03
2019-03-27T15:05:55.139Z,8.57
2019-03-27T15:08:25.389Z,5.77
2019-03-27T15:10:55.666Z,7.07
2019-03-27T15:13:25.937Z,7.70
2019-03-27T15:15:56.181Z,8.37
2019-03-27T15:18:26.471Z,8.30
2019-03-27T15:20:56.717Z,8.03
2019-03-27T15:23:26.968Z,8.10
2019-03-27T15:25:57.253Z,8.17
2019-03-27T15:28:27.499Z,6.67
2019-03-27T15:30:58.048Z,10.27
2019-03-27T15:33:28.303Z,11.23
2019-03-27T15:35:58.849Z,10.43
2019-03-27T15:38:29.125Z,11.23
2019-03-27T15:40:59.374Z,8.87
2019-03-27T15:43:29.674Z,10.10
2019-03-27T15:45:59.943Z,5.47
2019-03-27T15:48:30.219Z,10.80
2019-03-27T15:51:00.473Z,7.20
2019-03-27T15:53:30.730Z,10.13
2019-03-27T15:56:00.986Z,12.00
2019-03-27T15:58:31.238Z,11.37
2019-03-27T16:01:01.514Z,9.13
2019-03-27T16:03:31.800Z,12.83
2019-03-27T16:06:02.042Z,11.37
2019-03-27T16:08:32.304Z,11.73
2019-03-27T16:11:02.842Z,10.97
2019-03-27T16:13:33.122Z,11.73
2019-03-27T16:16:03.366Z,9.63
2019-03-27T16:18:33.652Z,12.73
2019-03-27T16:21:03.935Z,11.97
2019-03-27T16:23:34.224Z,17.80
2019-03-27T16:26:04.467Z,14.90
2019-03-27T16:28:34.722Z,12.17
2019-03-27T16:31:04.971Z,12.27
2019-03-27T16:33:35.259Z,12.77
2019-03-27T16:36:05.534Z,13.53
2019-03-27T16:38:35.831Z,15.27
2019-03-27T16:41:06.076Z,12.03
2019-03-27T16:43:36.323Z,12.80
2019-03-27T16:46:06.576Z,12.00
2019-03-27T16:48:36.853Z,11.63
2019-03-27T16:51:07.095Z,12.67
2019-03-27T16:53:37.339Z,15.90
2019-03-27T16:56:08.085Z,11.33
2019-03-27T16:58:38.347Z,8.60
2019-03-27T17:01:08.619Z,14.00
2019-03-27T17:03:38.845Z,9.67
2019-03-27T17:06:09.128Z,13.57
2019-03-27T17:08:39.397Z,8.60
2019-03-27T17:11:09.628Z,10.70
2019-03-27T17:13:40.452Z,12.20
2019-03-27T17:16:10.990Z,10.50
2019-03-27T17:18:41.231Z,10.20
2019-03-27T17:21:11.716Z,8.77
2019-03-27T17:23:41.958Z,11.03
2019-03-27T17:26:12.227Z,10.53
2019-03-27T17:28:42.766Z,9.27
2019-03-27T17:31:13.032Z,9.80
2019-03-27T17:33:43.296Z,16.73
2019-03-27T17:36:13.624Z,10.83
2019-03-27T17:38:44.078Z,13.43
2019-03-27T17:41:14.428Z,14.23
2019-03-27T17:43:46.488Z,9.17
2019-03-27T17:46:17.046Z,12.13
2019-03-27T17:48:47.504Z,9.27
2019-03-27T17:51:17.841Z,7.83
2019-03-27T17:53:48.178Z,8.17
2019-03-27T17:56:18.672Z,6.20
2019-03-27T17:58:49.048Z,9.23
2019-03-27T18:01:19.297Z,11.40
2019-03-27T18:03:49.625Z,8.90
2019-03-27T18:06:19.865Z,11.40
2019-03-27T18:08:50.110Z,9.07
2019-03-27T18:11:20.417Z,9.67
2019-03-27T18:13:50.676Z,8.10
2019-03-27T18:16:20.942Z,7.93
2019-03-27T18:18:51.178Z,10.90
2019-03-27T18:21:21.856Z,5.83
2019-03-27T18:23:52.134Z,8.03
2019-03-27T18:26:22.370Z,8.63
2019-03-27T18:28:52.616Z,10.87
2019-03-27T18:31:22.891Z,10.27
2019-03-27T18:33:53.166Z,8.70
2019-03-27T18:36:23.404Z,8.13
2019-03-27T18:38:53.743Z,11.50
2019-03-27T18:41:24.483Z,8.20
2019-03-27T18:43:54.802Z,7.97
2019-03-27T18:46:25.181Z,9.40
2019-03-27T18:48:55.627Z,10.40
2019-03-27T18:51:26.119Z,11.77
2019-03-27T18:53:59.771Z,10.63
2019-03-27T18:56:30.225Z,9.73
2019-03-27T18:59:00.733Z,11.17
2019-03-27T19:01:30.987Z,15.13
2019-03-27T19:04:01.229Z,12.30
2019-03-27T19:06:31.920Z,12.27
2019-03-27T19:09:02.707Z,13.07
2019-03-27T19:11:32.961Z,13.47
2019-03-27T19:14:03.216Z,14.13
2019-03-27T19:16:33.478Z,9.57
2019-03-27T19:19:03.709Z,12.07
2019-03-27T19:21:33.991Z,13.63
2019-03-27T19:24:14.842Z,14.67
2019-03-27T19:26:36.209Z,9.97
2019-03-27T19:29:06.457Z,12.63
2019-03-27T19:31:36.769Z,11.13
2019-03-27T19:34:07.281Z,12.70
2019-03-27T19:36:37.590Z,10.50
2019-03-27T19:39:09.742Z,11.37
2019-03-27T19:41:40.022Z,12.00
2019-03-27T19:44:10.350Z,13.07
2019-03-27T19:46:40.705Z,12.67
2019-03-27T19:49:10.988Z,15.37
2019-03-27T19:51:41.265Z,12.13
2019-03-27T19:54:11.543Z,10.67
2019-03-27T19:56:41.790Z,15.87
2019-03-27T19:59:12.076Z,12.27
2019-03-27T20:01:42.352Z,15.43
2019-03-27T20:04:15.713Z,17.67
2019-03-27T20:06:45.978Z,18.37
2019-03-27T20:09:16.736Z,17.10
2019-03-27T20:11:47.135Z,16.07
2019-03-27T20:14:17.456Z,21.63
2019-03-27T20:16:47.809Z,19.53
2019-03-27T20:19:18.100Z,24.70
2019-03-27T20:21:48.339Z,21.03
2019-03-27T20:24:18.633Z,26.07
2019-03-27T20:26:48.887Z,25.80
2019-03-27T20:29:19.174Z,23.83
2019-03-27T20:31:49.458Z,23.67
2019-03-27T20:34:19.746Z,24.40
2019-03-27T20:36:50.033Z,23.53
2019-03-27T20:39:20.286Z,25.07
2019-03-27T20:41:50.534Z,30.10
2019-03-27T20:44:20.798Z,22.70
2019-03-27T20:46:51.069Z,26.00
2019-03-27T20:49:21.320Z,31.67
2019-03-27T20:51:54.956Z,25.07
2019-03-27T20:54:25.389Z,29.47
2019-03-27T20:56:55.773Z,26.43
2019-03-27T20:59:25.999Z,32.00
2019-03-27T21:01:56.663Z,36.27
2019-03-27T21:04:27.381Z,33.90
2019-03-27T21:06:57.662Z,37.30
2019-03-27T21:09:27.956Z,31.57
2019-03-27T21:11:58.237Z,41.00
2019-03-27T21:14:28.508Z,36.67
2019-03-27T21:16:58.789Z,40.10
2019-03-27T21:19:29.076Z,35.10
2019-03-27T21:21:59.358Z,35.20
2019-03-27T21:24:29.619Z,34.80
2019-03-27T21:26:59.915Z,34.97
2019-03-27T21:29:30.383Z,36.17
2019-03-27T21:32:00.701Z,37.63
2019-03-27T21:34:30.974Z,41.63
2019-03-27T21:37:01.256Z,35.93
2019-03-27T21:39:31.550Z,39.60
2019-03-27T21:42:02.059Z,41.67
2019-03-27T21:44:32.309Z,42.20
2019-03-27T21:47:02.563Z,39.93
2019-03-27T21:49:32.844Z,34.20
2019-03-27T21:52:03.139Z,39.07
2019-03-27T21:54:33.383Z,41.03
2019-03-27T21:57:03.646Z,38.17
2019-03-27T21:59:33.930Z,39.03
2019-03-27T22:02:05.926Z,33.93
2019-03-27T22:04:36.174Z,39.50
2019-03-27T22:07:06.431Z,37.40
2019-03-27T22:09:36.687Z,36.87
2019-03-27T22:12:06.971Z,36.10
2019-03-27T22:14:37.229Z,37.70
2019-03-27T22:17:07.519Z,35.97
2019-03-27T22:19:38.397Z,33.67
2019-03-27T22:22:08.683Z,35.67
2019-03-27T22:24:38.973Z,41.07
2019-03-27T22:27:09.217Z,38.30
2019-03-27T22:29:39.509Z,37.80
2019-03-27T22:32:09.753Z,39.57
2019-03-27T22:34:40.003Z,43.30
2019-03-27T22:37:10.264Z,42.33
2019-03-27T22:39:40.554Z,40.97
2019-03-27T22:42:10.837Z,37.13
2019-03-27T22:44:41.135Z,39.83
2019-03-27T22:47:11.418Z,44.57
2019-03-27T22:49:41.879Z,36.00
2019-03-27T22:52:12.162Z,39.43
2019-03-27T22:54:42.423Z,37.90
2019-03-27T22:57:12.736Z,37.50
2019-03-27T22:59:43.030Z,33.20
2019-03-27T23:02:13.640Z,35.67
2019-03-27T23:04:43.913Z,34.37
2019-03-27T23:07:14.199Z,35.97
2019-03-27T23:09:44.450Z,35.10
2019-03-27T23:12:14.714Z,32.83
2019-03-27T23:14:45.001Z,35.07
2019-03-27T23:17:15.541Z,32.70
2019-03-27T23:19:45.888Z,34.00
2019-03-27T23:22:16.300Z,36.30
2019-03-27T23:24:46.575Z,38.00
2019-03-27T23:27:16.850Z,37.80
2019-03-27T23:29:47.107Z,39.87
2019-03-27T23:32:17.347Z,35.13
2019-03-27T23:34:47.610Z,35.17
2019-03-27T23:37:17.860Z,32.40
2019-03-27T23:39:48.144Z,37.80
2019-03-27T23:42:18.398Z,33.83
2019-03-27T23:44:48.684Z,34.83
2019-03-27T23:47:18.929Z,33.93
2019-03-27T23:49:49.181Z,31.43
2019-03-27T23:52:19.429Z,28.13
2019-03-27T23:54:49.795Z,27.70
2019-03-27T23:57:20.110Z,26.23
2019-03-27T23:59:50.405Z,29.93
